sensor_id;sensor_type;location;lat;lon;timestamp;P1;durP1;ratioP1;P2;durP2;ratioP2
39778;SDS011;25454;49.878;8.618;2023-05-07T00:02:56;1.90;;;1.60;;
39778;SDS011;25454;49.878;8.618;2023-05-07T00:07:57;2.97;;;1.50;;
39778;SDS011;25454;49.878;8.618;2023-05-07T00:12:58;3.80;;;1.67;;
39778;SDS011;25454;49.878;8.618;2023-05-07T00:17:58;2.00;;;1.53;;
39778;SDS011;25454;49.878;8.618;2023-05-07T00:22:59;2.20;;;1.73;;
39778;SDS011;25454;49.878;8.618;2023-05-07T00:27:59;2.80;;;1.80;;
39778;SDS011;25454;49.878;8.618;2023-05-07T00:33:03;1.37;;;1.27;;
39778;SDS011;25454;49.878;8.618;2023-05-07T00:38:04;3.60;;;1.80;;
39778;SDS011;25454;49.878;8.618;2023-05-07T00:43:04;2.30;;;1.70;;
39778;SDS011;25454;49.878;8.618;2023-05-07T00:48:05;4.13;;;2.10;;
39778;SDS011;25454;49.878;8.618;2023-05-07T00:53:06;4.40;;;2.00;;
39778;SDS011;25454;49.878;8.618;2023-05-07T00:58:07;2.20;;;1.60;;
39778;SDS011;25454;49.878;8.618;2023-05-07T01:03:08;3.40;;;1.60;;
39778;SDS011;25454;49.878;8.618;2023-05-07T01:08:09;2.17;;;1.60;;
39778;SDS011;25454;49.878;8.618;2023-05-07T01:13:10;3.87;;;2.20;;
39778;SDS011;25454;49.878;8.618;2023-05-07T01:18:12;3.03;;;2.00;;
39778;SDS011;25454;49.878;8.618;2023-05-07T01:23:13;5.00;;;2.07;;
39778;SDS011;25454;49.878;8.618;2023-05-07T01:28:15;3.77;;;1.93;;
39778;SDS011;25454;49.878;8.618;2023-05-07T01:33:17;2.43;;;2.20;;
39778;SDS011;25454;49.878;8.618;2023-05-07T01:38:21;4.57;;;2.10;;
39778;SDS011;25454;49.878;8.618;2023-05-07T01:43:22;4.83;;;2.50;;
39778;SDS011;25454;49.878;8.618;2023-05-07T01:48:24;4.63;;;2.43;;
39778;SDS011;25454;49.878;8.618;2023-05-07T01:53:26;2.67;;;2.23;;
39778;SDS011;25454;49.878;8.618;2023-05-07T01:58:28;4.53;;;2.50;;
39778;SDS011;25454;49.878;8.618;2023-05-07T02:03:31;4.00;;;2.37;;
39778;SDS011;25454;49.878;8.618;2023-05-07T02:08:31;4.00;;;2.10;;
39778;SDS011;25454;49.878;8.618;2023-05-07T02:13:33;5.60;;;2.83;;
39778;SDS011;25454;49.878;8.618;2023-05-07T02:18:34;8.37;;;3.50;;
39778;SDS011;25454;49.878;8.618;2023-05-07T02:23:35;5.17;;;3.33;;
39778;SDS011;25454;49.878;8.618;2023-05-07T02:28:36;6.77;;;3.00;;
39778;SDS011;25454;49.878;8.618;2023-05-07T02:33:37;4.97;;;3.40;;
39778;SDS011;25454;49.878;8.618;2023-05-07T02:38:40;3.70;;;2.80;;
39778;SDS011;25454;49.878;8.618;2023-05-07T02:43:41;3.90;;;2.80;;
39778;SDS011;25454;49.878;8.618;2023-05-07T02:48:41;4.07;;;3.03;;
39778;SDS011;25454;49.878;8.618;2023-05-07T02:53:45;4.10;;;3.23;;
39778;SDS011;25454;49.878;8.618;2023-05-07T02:58:46;5.60;;;3.20;;
39778;SDS011;25454;49.878;8.618;2023-05-07T03:03:47;7.33;;;2.70;;
39778;SDS011;25454;49.878;8.618;2023-05-07T03:08:47;6.80;;;3.10;;
39778;SDS011;25454;49.878;8.618;2023-05-07T03:13:48;3.00;;;2.30;;
39778;SDS011;25454;49.878;8.618;2023-05-07T03:18:49;4.03;;;2.57;;
39778;SDS011;25454;49.878;8.618;2023-05-07T03:23:50;4.60;;;2.60;;
39778;SDS011;25454;49.878;8.618;2023-05-07T03:28:50;2.53;;;2.30;;
39778;SDS011;25454;49.878;8.618;2023-05-07T03:33:56;4.10;;;2.50;;
39778;SDS011;25454;49.878;8.618;2023-05-07T03:38:57;4.23;;;2.43;;
39778;SDS011;25454;49.878;8.618;2023-05-07T03:43:57;3.07;;;2.27;;
39778;SDS011;25454;49.878;8.618;2023-05-07T03:48:58;5.37;;;2.67;;
39778;SDS011;25454;49.878;8.618;2023-05-07T03:53:59;3.63;;;2.43;;
39778;SDS011;25454;49.878;8.618;2023-05-07T03:59:00;4.63;;;2.17;;
39778;SDS011;25454;49.878;8.618;2023-05-07T04:04:01;4.97;;;2.30;;
39778;SDS011;25454;49.878;8.618;2023-05-07T04:09:03;2.70;;;2.30;;
39778;SDS011;25454;49.878;8.618;2023-05-07T04:14:03;4.40;;;1.90;;
39778;SDS011;25454;49.878;8.618;2023-05-07T04:19:04;2.63;;;2.30;;
39778;SDS011;25454;49.878;8.618;2023-05-07T04:24:05;2.03;;;1.73;;
39778;SDS011;25454;49.878;8.618;2023-05-07T04:29:06;2.13;;;1.93;;
39778;SDS011;25454;49.878;8.618;2023-05-07T04:34:07;2.27;;;2.00;;
39778;SDS011;25454;49.878;8.618;2023-05-07T04:39:08;3.43;;;2.00;;
39778;SDS011;25454;49.878;8.618;2023-05-07T04:44:13;4.77;;;2.40;;
39778;SDS011;25454;49.878;8.618;2023-05-07T04:49:14;3.37;;;2.20;;
39778;SDS011;25454;49.878;8.618;2023-05-07T04:54:14;2.63;;;2.20;;
39778;SDS011;25454;49.878;8.618;2023-05-07T04:59:15;3.20;;;2.10;;
39778;SDS011;25454;49.878;8.618;2023-05-07T05:04:16;2.20;;;2.00;;
39778;SDS011;25454;49.878;8.618;2023-05-07T05:09:16;4.20;;;2.20;;
39778;SDS011;25454;49.878;8.618;2023-05-07T05:14:17;3.33;;;2.13;;
39778;SDS011;25454;49.878;8.618;2023-05-07T05:19:18;2.63;;;1.90;;
39778;SDS011;25454;49.878;8.618;2023-05-07T05:24:18;3.87;;;2.30;;
39778;SDS011;25454;49.878;8.618;2023-05-07T05:29:20;3.90;;;2.30;;
39778;SDS011;25454;49.878;8.618;2023-05-07T05:34:20;2.80;;;2.10;;
39778;SDS011;25454;49.878;8.618;2023-05-07T05:39:21;7.47;;;3.47;;
39778;SDS011;25454;49.878;8.618;2023-05-07T05:44:23;5.63;;;2.80;;
39778;SDS011;25454;49.878;8.618;2023-05-07T05:49:23;7.07;;;2.90;;
39778;SDS011;25454;49.878;8.618;2023-05-07T05:54:24;5.83;;;2.60;;
39778;SDS011;25454;49.878;8.618;2023-05-07T05:59:24;5.23;;;2.63;;
39778;SDS011;25454;49.878;8.618;2023-05-07T06:04:25;3.53;;;2.30;;
39778;SDS011;25454;49.878;8.618;2023-05-07T06:09:26;6.27;;;3.00;;
39778;SDS011;25454;49.878;8.618;2023-05-07T06:14:26;4.27;;;2.77;;
39778;SDS011;25454;49.878;8.618;2023-05-07T06:19:27;3.70;;;2.63;;
39778;SDS011;25454;49.878;8.618;2023-05-07T06:24:28;3.20;;;2.50;;
39778;SDS011;25454;49.878;8.618;2023-05-07T06:29:28;3.57;;;2.57;;
39778;SDS011;25454;49.878;8.618;2023-05-07T06:34:31;3.43;;;2.30;;
39778;SDS011;25454;49.878;8.618;2023-05-07T06:39:32;5.07;;;1.83;;
39778;SDS011;25454;49.878;8.618;2023-05-07T06:44:32;2.40;;;1.93;;
39778;SDS011;25454;49.878;8.618;2023-05-07T06:49:33;5.63;;;2.30;;
39778;SDS011;25454;49.878;8.618;2023-05-07T06:54:34;2.30;;;2.10;;
39778;SDS011;25454;49.878;8.618;2023-05-07T06:59:34;2.47;;;2.20;;
39778;SDS011;25454;49.878;8.618;2023-05-07T07:04:35;3.57;;;2.20;;
39778;SDS011;25454;49.878;8.618;2023-05-07T07:09:35;5.23;;;2.10;;
39778;SDS011;25454;49.878;8.618;2023-05-07T07:14:36;2.63;;;2.33;;
39778;SDS011;25454;49.878;8.618;2023-05-07T07:19:37;2.50;;;2.30;;
39778;SDS011;25454;49.878;8.618;2023-05-07T07:24:38;4.50;;;2.00;;
39778;SDS011;25454;49.878;8.618;2023-05-07T07:29:39;3.47;;;2.30;;
39778;SDS011;25454;49.878;8.618;2023-05-07T07:34:40;2.60;;;2.40;;
39778;SDS011;25454;49.878;8.618;2023-05-07T07:39:40;2.53;;;2.23;;
39778;SDS011;25454;49.878;8.618;2023-05-07T07:44:41;3.83;;;2.20;;
39778;SDS011;25454;49.878;8.618;2023-05-07T07:49:42;4.30;;;2.33;;
39778;SDS011;25454;49.878;8.618;2023-05-07T07:54:44;2.87;;;2.47;;
39778;SDS011;25454;49.878;8.618;2023-05-07T07:59:44;3.23;;;2.40;;
39778;SDS011;25454;49.878;8.618;2023-05-07T08:04:45;6.50;;;2.33;;
39778;SDS011;25454;49.878;8.618;2023-05-07T08:09:46;3.20;;;2.60;;
39778;SDS011;25454;49.878;8.618;2023-05-07T08:14:47;2.50;;;2.30;;
39778;SDS011;25454;49.878;8.618;2023-05-07T08:19:48;6.57;;;2.50;;
39778;SDS011;25454;49.878;8.618;2023-05-07T08:24:48;3.30;;;2.07;;
39778;SDS011;25454;49.878;8.618;2023-05-07T08:29:49;2.90;;;2.30;;
39778;SDS011;25454;49.878;8.618;2023-05-07T08:34:49;2.77;;;2.30;;
39778;SDS011;25454;49.878;8.618;2023-05-07T08:39:50;4.93;;;2.10;;
39778;SDS011;25454;49.878;8.618;2023-05-07T08:44:51;3.73;;;2.60;;
39778;SDS011;25454;49.878;8.618;2023-05-07T08:49:59;2.90;;;2.60;;
39778;SDS011;25454;49.878;8.618;2023-05-07T08:55:00;3.17;;;2.33;;
39778;SDS011;25454;49.878;8.618;2023-05-07T09:00:03;4.83;;;2.30;;
39778;SDS011;25454;49.878;8.618;2023-05-07T09:05:04;2.93;;;2.63;;
39778;SDS011;25454;49.878;8.618;2023-05-07T09:10:05;2.73;;;2.53;;
39778;SDS011;25454;49.878;8.618;2023-05-07T09:15:07;4.07;;;2.70;;
39778;SDS011;25454;49.878;8.618;2023-05-07T09:20:08;4.03;;;2.57;;
39778;SDS011;25454;49.878;8.618;2023-05-07T09:25:09;4.20;;;2.97;;
39778;SDS011;25454;49.878;8.618;2023-05-07T09:30:10;3.30;;;2.77;;
39778;SDS011;25454;49.878;8.618;2023-05-07T09:35:14;4.73;;;2.90;;
39778;SDS011;25454;49.878;8.618;2023-05-07T09:40:20;5.57;;;3.10;;
39778;SDS011;25454;49.878;8.618;2023-05-07T09:45:25;2.77;;;2.57;;
39778;SDS011;25454;49.878;8.618;2023-05-07T09:50:30;4.30;;;2.70;;
39778;SDS011;25454;49.878;8.618;2023-05-07T09:55:38;3.30;;;2.90;;
39778;SDS011;25454;49.878;8.618;2023-05-07T10:00:39;3.33;;;3.03;;
39778;SDS011;25454;49.878;8.618;2023-05-07T10:05:41;3.57;;;2.80;;
39778;SDS011;25454;49.878;8.618;2023-05-07T10:10:44;6.93;;;2.83;;
39778;SDS011;25454;49.878;8.618;2023-05-07T10:15:45;2.97;;;2.77;;
39778;SDS011;25454;49.878;8.618;2023-05-07T10:20:46;3.50;;;2.93;;
39778;SDS011;25454;49.878;8.618;2023-05-07T10:25:48;6.37;;;3.10;;
39778;SDS011;25454;49.878;8.618;2023-05-07T10:35:57;3.10;;;2.80;;
39778;SDS011;25454;49.878;8.618;2023-05-07T10:41:03;2.73;;;2.53;;
39778;SDS011;25454;49.878;8.618;2023-05-07T10:51:20;3.80;;;2.50;;
39778;SDS011;25454;49.878;8.618;2023-05-07T10:56:24;3.87;;;2.60;;
39778;SDS011;25454;49.878;8.618;2023-05-07T11:12:08;2.57;;;2.30;;
39778;SDS011;25454;49.878;8.618;2023-05-07T11:17:09;3.53;;;2.40;;
39778;SDS011;25454;49.878;8.618;2023-05-07T11:27:32;2.53;;;2.30;;
39778;SDS011;25454;49.878;8.618;2023-05-07T11:32:33;4.43;;;2.37;;
39778;SDS011;25454;49.878;8.618;2023-05-07T11:37:33;2.47;;;2.30;;
39778;SDS011;25454;49.878;8.618;2023-05-07T11:42:35;2.97;;;2.50;;
39778;SDS011;25454;49.878;8.618;2023-05-07T11:47:37;2.47;;;2.27;;
39778;SDS011;25454;49.878;8.618;2023-05-07T11:52:38;4.57;;;2.40;;
39778;SDS011;25454;49.878;8.618;2023-05-07T11:57:42;6.37;;;2.30;;
39778;SDS011;25454;49.878;8.618;2023-05-07T12:02:43;4.73;;;2.60;;
39778;SDS011;25454;49.878;8.618;2023-05-07T12:07:45;4.50;;;2.43;;
39778;SDS011;25454;49.878;8.618;2023-05-07T12:12:48;3.73;;;2.10;;
39778;SDS011;25454;49.878;8.618;2023-05-07T12:17:49;4.07;;;2.50;;
39778;SDS011;25454;49.878;8.618;2023-05-07T12:22:50;3.03;;;2.37;;
39778;SDS011;25454;49.878;8.618;2023-05-07T12:27:52;3.17;;;2.40;;
39778;SDS011;25454;49.878;8.618;2023-05-07T12:32:53;3.20;;;2.43;;
39778;SDS011;25454;49.878;8.618;2023-05-07T12:37:55;3.37;;;2.07;;
39778;SDS011;25454;49.878;8.618;2023-05-07T12:42:56;2.00;;;1.90;;
39778;SDS011;25454;49.878;8.618;2023-05-07T12:48:01;3.13;;;2.07;;
39778;SDS011;25454;49.878;8.618;2023-05-07T12:53:03;1.83;;;1.63;;
39778;SDS011;25454;49.878;8.618;2023-05-07T12:58:05;2.77;;;1.60;;
39778;SDS011;25454;49.878;8.618;2023-05-07T13:03:06;2.20;;;2.00;;
39778;SDS011;25454;49.878;8.618;2023-05-07T13:08:07;2.13;;;1.60;;
39778;SDS011;25454;49.878;8.618;2023-05-07T13:13:09;3.17;;;2.00;;
39778;SDS011;25454;49.878;8.618;2023-05-07T13:18:10;3.83;;;2.20;;
39778;SDS011;25454;49.878;8.618;2023-05-07T13:23:11;2.37;;;2.00;;
39778;SDS011;25454;49.878;8.618;2023-05-07T13:28:11;2.80;;;1.83;;
39778;SDS011;25454;49.878;8.618;2023-05-07T13:33:12;3.27;;;1.70;;
39778;SDS011;25454;49.878;8.618;2023-05-07T13:38:13;3.17;;;1.37;;
39778;SDS011;25454;49.878;8.618;2023-05-07T13:43:17;3.90;;;1.97;;
39778;SDS011;25454;49.878;8.618;2023-05-07T13:48:18;2.30;;;1.70;;
39778;SDS011;25454;49.878;8.618;2023-05-07T13:53:19;2.40;;;2.00;;
39778;SDS011;25454;49.878;8.618;2023-05-07T13:58:19;2.83;;;1.70;;
39778;SDS011;25454;49.878;8.618;2023-05-07T14:03:20;1.93;;;1.83;;
39778;SDS011;25454;49.878;8.618;2023-05-07T14:08:21;2.10;;;1.70;;
39778;SDS011;25454;49.878;8.618;2023-05-07T14:13:21;2.07;;;1.57;;
39778;SDS011;25454;49.878;8.618;2023-05-07T14:18:22;2.37;;;1.90;;
39778;SDS011;25454;49.878;8.618;2023-05-07T14:23:22;1.97;;;1.87;;
39778;SDS011;25454;49.878;8.618;2023-05-07T14:28:26;1.73;;;1.63;;
39778;SDS011;25454;49.878;8.618;2023-05-07T14:33:29;3.20;;;1.87;;
39778;SDS011;25454;49.878;8.618;2023-05-07T14:38:30;2.40;;;2.20;;
39778;SDS011;25454;49.878;8.618;2023-05-07T14:43:32;2.67;;;2.10;;
39778;SDS011;25454;49.878;8.618;2023-05-07T14:48:33;2.57;;;2.30;;
39778;SDS011;25454;49.878;8.618;2023-05-07T14:53:37;2.57;;;2.37;;
39778;SDS011;25454;49.878;8.618;2023-05-07T14:58:37;2.17;;;1.97;;
39778;SDS011;25454;49.878;8.618;2023-05-07T15:03:38;2.23;;;2.00;;
39778;SDS011;25454;49.878;8.618;2023-05-07T15:08:39;1.90;;;1.80;;
39778;SDS011;25454;49.878;8.618;2023-05-07T15:13:41;2.70;;;1.80;;
39778;SDS011;25454;49.878;8.618;2023-05-07T15:18:42;3.03;;;2.30;;
39778;SDS011;25454;49.878;8.618;2023-05-07T15:23:43;2.17;;;1.87;;
39778;SDS011;25454;49.878;8.618;2023-05-07T15:28:44;4.07;;;2.57;;
39778;SDS011;25454;49.878;8.618;2023-05-07T15:33:45;3.97;;;2.30;;
39778;SDS011;25454;49.878;8.618;2023-05-07T15:38:47;3.97;;;2.00;;
39778;SDS011;25454;49.878;8.618;2023-05-07T15:43:48;2.30;;;1.90;;
39778;SDS011;25454;49.878;8.618;2023-05-07T15:48:51;2.20;;;2.00;;
39778;SDS011;25454;49.878;8.618;2023-05-07T15:53:52;7.00;;;2.77;;
39778;SDS011;25454;49.878;8.618;2023-05-07T15:58:52;2.50;;;2.30;;
39778;SDS011;25454;49.878;8.618;2023-05-07T16:03:53;5.90;;;2.10;;
39778;SDS011;25454;49.878;8.618;2023-05-07T16:08:54;3.50;;;2.27;;
39778;SDS011;25454;49.878;8.618;2023-05-07T16:13:54;5.93;;;2.43;;
39778;SDS011;25454;49.878;8.618;2023-05-07T16:18:55;4.17;;;2.27;;
39778;SDS011;25454;49.878;8.618;2023-05-07T16:23:56;3.40;;;2.33;;
39778;SDS011;25454;49.878;8.618;2023-05-07T16:28:56;5.70;;;2.53;;
39778;SDS011;25454;49.878;8.618;2023-05-07T16:33:58;3.07;;;2.40;;
39778;SDS011;25454;49.878;8.618;2023-05-07T16:38:59;4.70;;;2.40;;
39778;SDS011;25454;49.878;8.618;2023-05-07T16:43:59;4.27;;;2.20;;
39778;SDS011;25454;49.878;8.618;2023-05-07T16:49:00;4.03;;;2.07;;
39778;SDS011;25454;49.878;8.618;2023-05-07T16:54:01;4.57;;;2.27;;
39778;SDS011;25454;49.878;8.618;2023-05-07T16:59:02;3.33;;;1.77;;
39778;SDS011;25454;49.878;8.618;2023-05-07T17:04:02;4.40;;;2.40;;
39778;SDS011;25454;49.878;8.618;2023-05-07T17:09:03;3.43;;;2.50;;
39778;SDS011;25454;49.878;8.618;2023-05-07T17:14:04;3.53;;;2.70;;
39778;SDS011;25454;49.878;8.618;2023-05-07T17:19:07;4.13;;;2.97;;
39778;SDS011;25454;49.878;8.618;2023-05-07T17:24:07;5.03;;;2.90;;
39778;SDS011;25454;49.878;8.618;2023-05-07T17:29:09;4.73;;;3.03;;
39778;SDS011;25454;49.878;8.618;2023-05-07T17:34:09;5.60;;;2.90;;
39778;SDS011;25454;49.878;8.618;2023-05-07T17:39:11;4.47;;;2.77;;
39778;SDS011;25454;49.878;8.618;2023-05-07T17:44:11;6.27;;;2.63;;
39778;SDS011;25454;49.878;8.618;2023-05-07T17:49:13;4.13;;;2.80;;
39778;SDS011;25454;49.878;8.618;2023-05-07T17:54:14;5.57;;;2.70;;
39778;SDS011;25454;49.878;8.618;2023-05-07T17:59:15;3.67;;;2.10;;
39778;SDS011;25454;49.878;8.618;2023-05-07T18:04:16;4.23;;;2.43;;
39778;SDS011;25454;49.878;8.618;2023-05-07T18:09:18;4.20;;;2.50;;
39778;SDS011;25454;49.878;8.618;2023-05-07T18:14:18;3.80;;;2.50;;
39778;SDS011;25454;49.878;8.618;2023-05-07T18:19:23;5.50;;;2.50;;
39778;SDS011;25454;49.878;8.618;2023-05-07T18:24:24;4.80;;;2.87;;
39778;SDS011;25454;49.878;8.618;2023-05-07T18:29:26;2.40;;;2.20;;
39778;SDS011;25454;49.878;8.618;2023-05-07T18:34:26;4.57;;;2.03;;
39778;SDS011;25454;49.878;8.618;2023-05-07T18:39:27;4.80;;;2.67;;
39778;SDS011;25454;49.878;8.618;2023-05-07T18:44:27;2.80;;;2.10;;
39778;SDS011;25454;49.878;8.618;2023-05-07T18:49:30;2.77;;;2.17;;
39778;SDS011;25454;49.878;8.618;2023-05-07T18:54:31;2.70;;;2.47;;
39778;SDS011;25454;49.878;8.618;2023-05-07T18:59:32;2.90;;;2.23;;
39778;SDS011;25454;49.878;8.618;2023-05-07T19:04:32;4.10;;;2.90;;
39778;SDS011;25454;49.878;8.618;2023-05-07T19:09:33;3.30;;;2.67;;
39778;SDS011;25454;49.878;8.618;2023-05-07T19:14:33;4.40;;;3.60;;
39778;SDS011;25454;49.878;8.618;2023-05-07T19:19:34;4.37;;;3.57;;
39778;SDS011;25454;49.878;8.618;2023-05-07T19:24:35;5.47;;;3.90;;
39778;SDS011;25454;49.878;8.618;2023-05-07T19:29:36;3.93;;;3.20;;
39778;SDS011;25454;49.878;8.618;2023-05-07T19:34:36;3.27;;;2.67;;
39778;SDS011;25454;49.878;8.618;2023-05-07T19:39:37;3.83;;;2.53;;
39778;SDS011;25454;49.878;8.618;2023-05-07T19:44:37;3.30;;;2.87;;
39778;SDS011;25454;49.878;8.618;2023-05-07T19:49:38;3.67;;;2.90;;
39778;SDS011;25454;49.878;8.618;2023-05-07T19:54:38;4.73;;;3.00;;
39778;SDS011;25454;49.878;8.618;2023-05-07T19:59:39;5.27;;;3.07;;
39778;SDS011;25454;49.878;8.618;2023-05-07T20:04:40;6.80;;;3.07;;
39778;SDS011;25454;49.878;8.618;2023-05-07T20:09:41;4.00;;;3.40;;
39778;SDS011;25454;49.878;8.618;2023-05-07T20:14:41;4.60;;;3.27;;
39778;SDS011;25454;49.878;8.618;2023-05-07T20:19:42;4.47;;;2.73;;
39778;SDS011;25454;49.878;8.618;2023-05-07T20:24:42;5.47;;;3.00;;
39778;SDS011;25454;49.878;8.618;2023-05-07T20:29:43;4.90;;;3.20;;
39778;SDS011;25454;49.878;8.618;2023-05-07T20:34:43;4.93;;;3.83;;
39778;SDS011;25454;49.878;8.618;2023-05-07T20:39:44;9.37;;;4.70;;
39778;SDS011;25454;49.878;8.618;2023-05-07T20:44:45;6.13;;;3.90;;
39778;SDS011;25454;49.878;8.618;2023-05-07T20:49:49;4.90;;;4.10;;
39778;SDS011;25454;49.878;8.618;2023-05-07T20:54:51;6.80;;;4.60;;
39778;SDS011;25454;49.878;8.618;2023-05-07T20:59:52;7.60;;;4.73;;
39778;SDS011;25454;49.878;8.618;2023-05-07T21:04:52;5.00;;;4.27;;
39778;SDS011;25454;49.878;8.618;2023-05-07T21:09:53;7.20;;;4.90;;
39778;SDS011;25454;49.878;8.618;2023-05-07T21:14:55;6.33;;;4.93;;
39778;SDS011;25454;49.878;8.618;2023-05-07T21:19:55;8.40;;;5.80;;
39778;SDS011;25454;49.878;8.618;2023-05-07T21:24:56;6.93;;;5.80;;
39778;SDS011;25454;49.878;8.618;2023-05-07T21:29:56;7.30;;;5.83;;
39778;SDS011;25454;49.878;8.618;2023-05-07T21:35:02;7.33;;;5.67;;
39778;SDS011;25454;49.878;8.618;2023-05-07T21:40:03;5.67;;;5.17;;
39778;SDS011;25454;49.878;8.618;2023-05-07T21:45:04;6.60;;;6.00;;
39778;SDS011;25454;49.878;8.618;2023-05-07T21:50:05;7.80;;;6.53;;
39778;SDS011;25454;49.878;8.618;2023-05-07T21:55:06;10.30;;;7.63;;
39778;SDS011;25454;49.878;8.618;2023-05-07T22:00:07;7.80;;;6.77;;
39778;SDS011;25454;49.878;8.618;2023-05-07T22:05:08;6.10;;;5.50;;
39778;SDS011;25454;49.878;8.618;2023-05-07T22:10:09;6.10;;;5.30;;
39778;SDS011;25454;49.878;8.618;2023-05-07T22:15:10;6.33;;;4.97;;
39778;SDS011;25454;49.878;8.618;2023-05-07T22:20:10;5.33;;;4.70;;
39778;SDS011;25454;49.878;8.618;2023-05-07T22:25:11;4.70;;;4.27;;
39778;SDS011;25454;49.878;8.618;2023-05-07T22:30:12;4.97;;;3.93;;
39778;SDS011;25454;49.878;8.618;2023-05-07T22:35:13;4.83;;;3.73;;
39778;SDS011;25454;49.878;8.618;2023-05-07T22:40:13;5.00;;;3.50;;
39778;SDS011;25454;49.878;8.618;2023-05-07T22:45:14;6.37;;;3.87;;
39778;SDS011;25454;49.878;8.618;2023-05-07T22:50:15;5.97;;;3.53;;
39778;SDS011;25454;49.878;8.618;2023-05-07T22:55:15;4.17;;;3.70;;
39778;SDS011;25454;49.878;8.618;2023-05-07T23:00:16;4.23;;;3.20;;
39778;SDS011;25454;49.878;8.618;2023-05-07T23:05:17;4.47;;;3.60;;
39778;SDS011;25454;49.878;8.618;2023-05-07T23:10:17;4.37;;;3.97;;
39778;SDS011;25454;49.878;8.618;2023-05-07T23:15:18;4.60;;;4.17;;
39778;SDS011;25454;49.878;8.618;2023-05-07T23:20:19;4.87;;;3.63;;
39778;SDS011;25454;49.878;8.618;2023-05-07T23:25:19;4.87;;;4.40;;
39778;SDS011;25454;49.878;8.618;2023-05-07T23:30:20;4.70;;;4.00;;
39778;SDS011;25454;49.878;8.618;2023-05-07T23:35:21;5.27;;;4.70;;
39778;SDS011;25454;49.878;8.618;2023-05-07T23:40:21;6.47;;;5.17;;
39778;SDS011;25454;49.878;8.618;2023-05-07T23:45:22;6.27;;;5.40;;
39778;SDS011;25454;49.878;8.618;2023-05-07T23:50:22;6.33;;;5.50;;
39778;SDS011;25454;49.878;8.618;2023-05-07T23:55:23;9.27;;;6.80;;
